Time;durP1;ratioP1;P1;durP2;ratioP2;P2;SDS_P1;SDS_P2;PMS_P1;PMS_P2;Temp;Humidity;BMP_temperature;BMP_pressure;BME280_temperature;BME280_humidity;BME280_pressure;Samples;Min_cycle;Max_cycle;Signal;HPM_P1;HPM_P2
2021/04/01 04:15:56;;;;;;;15.18;0.90;;;1.70;94.30;;;;;;5091341;28;20097;-68
2021/04/01 04:18:22;;;;;;;11.43;0.90;;;1.70;94.40;;;;;;5091110;28;21007;-68
2021/04/01 04:20:48;;;;;;;6.35;1.13;;;1.80;94.40;;;;;;5091001;28;20016;-68
2021/04/01 04:23:16;;;;;;;4.18;0.90;;;1.80;93.90;;;;;;5091163;28;20051;-68
2021/04/01 04:25:42;;;;;;;7.13;0.88;;;1.90;93.50;;;;;;5091089;28;20067;-68
2021/04/01 04:30:34;;;;;;;9.20;1.00;;;1.90;93.40;;;;;;5091187;28;20127;-68
2021/04/01 04:33:00;;;;;;;8.68;0.80;;;1.90;93.60;;;;;;5094291;28;20416;-67
2021/04/01 04:35:26;;;;;;;4.50;0.75;;;1.90;93.60;;;;;;5094455;28;20062;-68
2021/04/01 04:37:52;;;;;;;5.80;0.65;;;1.90;95.10;;;;;;5094595;28;20059;-68
2021/04/01 04:40:18;;;;;;;5.20;0.77;;;2.30;99.90;;;;;;5094687;28;20055;-74
2021/04/01 04:42:44;;;;;;;5.20;1.02;;;2.40;94.90;;;;;;5094757;28;20432;-72
2021/04/01 04:45:10;;;;;;;6.32;1.13;;;2.40;93.20;;;;;;5094332;28;20024;-76
2021/04/01 04:47:36;;;;;;;7.70;0.88;;;2.50;93.40;;;;;;5076416;28;20433;-72
2021/04/01 04:50:04;;;;;;;13.95;1.27;;;2.70;92.40;;;;;;5094833;28;20028;-76
2021/04/01 04:52:31;;;;;;;9.38;1.17;;;3.00;91.50;;;;;;5094602;28;20028;-71
2021/04/01 04:54:57;;;;;;;7.55;1.00;;;3.20;90.40;;;;;;5110392;28;20089;-75
2021/04/01 04:57:46;;;;;;;18.90;1.65;;;3.40;89.50;;;;;;5094183;28;20032;-81
2021/04/01 05:05:28;;;;;;;7.07;0.60;;;4.50;83.80;;;;;;5094350;28;20379;-72
2021/04/01 05:07:54;;;;;;;6.60;1.08;;;4.90;81.20;;;;;;5094620;28;20020;-81
2021/04/01 05:10:20;;;;;;;16.08;0.93;;;5.30;79.10;;;;;;5110848;28;20030;-77
2021/04/01 05:12:49;;;;;;;10.32;1.08;;;5.60;78.50;;;;;;5093835;28;20044;-77
2021/04/01 05:15:15;;;;;;;12.45;1.08;;;5.90;76.30;;;;;;5093987;28;20016;-78
2021/04/01 05:17:41;;;;;;;10.90;0.77;;;6.20;74.60;;;;;;5093942;28;20123;-77
2021/04/01 05:20:08;;;;;;;8.65;0.80;;;6.50;73.70;;;;;;5093965;28;20020;-78
2021/04/01 05:25:06;;;;;;;2.83;0.80;;;7.00;71.80;;;;;;5094117;28;20035;-77
2021/04/01 05:27:41;;;;;;;2.30;0.50;;;7.20;70.60;;;;;;5088229;28;20506;-77
2021/04/01 05:30:07;;;;;;;3.83;1.20;;;7.40;70.00;;;;;;5093515;28;20028;-79
2021/04/01 05:32:36;;;;;;;8.30;0.70;;;7.60;69.30;;;;;;5093488;28;20043;-77
2021/04/01 05:35:06;;;;;;;8.98;0.88;;;7.80;68.50;;;;;;5085022;28;20468;-77
2021/04/01 05:37:32;;;;;;;11.88;1.00;;;7.90;67.60;;;;;;5093494;28;20039;-77
2021/04/01 05:39:59;;;;;;;13.57;0.77;;;8.10;67.40;;;;;;5093689;28;20024;-77
2021/04/01 05:42:28;;;;;;;13.15;0.90;;;8.30;66.60;;;;;;5092696;28;20024;-77
2021/04/01 05:45:04;;;;;;;2.85;0.55;;;8.50;66.10;;;;;;5075615;28;20024;-80
2021/04/01 06:04:07;;;;;;;4.82;0.80;;;9.50;62.50;;;;;;5092591;28;20089;-80
2021/04/01 06:06:43;;;;;;;10.63;0.93;;;9.90;70.10;;;;;;5093160;28;20024;-77
2021/04/01 06:09:20;;;;;;;7.35;0.57;;;11.00;63.80;;;;;;5092877;28;20020;-77
2021/04/01 06:11:50;;;;;;;4.82;0.60;;;10.60;59.60;;;;;;5092752;28;20511;-76
2021/04/01 06:14:19;;;;;;;;;;;10.00;60.00;;;;;;5092907;28;20476;-77
2021/04/01 06:16:46;;;;;;;0.93;0.40;;;9.90;59.60;;;;;;5092523;28;20014;-77
2021/04/01 06:19:15;;;;;;;4.85;0.70;;;9.80;60.80;;;;;;5092416;28;20063;-77
2021/04/01 06:21:46;;;;;;;3.85;0.80;;;9.80;61.10;;;;;;5092852;28;20024;-76
2021/04/01 06:24:18;;;;;;;0.50;0.40;;;9.70;61.00;;;;;;5092237;28;20028;-77
2021/04/01 06:26:55;;;;;;;5.38;0.77;;;9.80;60.90;;;;;;5092439;28;20089;-76
2021/04/01 06:29:23;;;;;;;10.75;0.98;;;9.70;60.40;;;;;;5092938;28;20141;-77
2021/04/01 06:31:51;;;;;;;4.75;0.50;;;9.50;61.00;;;;;;5092484;28;20032;-76
2021/04/01 06:34:42;;;;;;;1.85;0.60;;;10.10;65.20;;;;;;5092248;28;20040;-78
2021/04/01 06:37:37;;;;;;;2.42;1.00;;;11.70;71.60;;;;;;5092306;28;20047;-77
2021/04/01 06:40:04;;;;;;;4.78;0.68;;;12.40;59.20;;;;;;5092317;28;20024;-71
2021/04/01 06:42:42;;;;;;;2.70;0.60;;;11.60;57.70;;;;;;5092099;28;20157;-70
2021/04/01 06:45:09;;;;;;;5.85;0.60;;;11.20;58.10;;;;;;5092123;28;20134;-74
2021/04/01 06:47:37;;;;;;;5.35;0.60;;;10.90;58.40;;;;;;5090023;28;20169;-74
2021/04/01 06:50:16;;;;;;;4.90;0.70;;;10.70;58.40;;;;;;5092138;28;20027;-75
2021/04/01 06:52:51;;;;;;;2.13;0.43;;;10.60;58.70;;;;;;5092185;28;20085;-74
2021/04/01 06:58:33;;;;;;;3.30;0.57;;;10.40;58.40;;;;;;5068269;28;20054;-73
2021/04/01 07:03:39;;;;;;;5.78;0.90;;;10.20;58.40;;;;;;5091851;28;20426;-72
2021/04/01 07:06:08;;;;;;;5.15;0.73;;;10.00;59.00;;;;;;5091819;28;20069;-73
2021/04/01 07:08:53;;;;;;;2.92;0.60;;;10.00;59.10;;;;;;5091634;28;20472;-70
2021/04/01 07:11:40;;;;;;;3.05;0.60;;;9.90;59.10;;;;;;5080478;28;20035;-69
2021/04/01 07:14:17;;;;;;;5.68;0.70;;;9.70;59.00;;;;;;5091245;28;20043;-71
2021/04/01 07:31:03;;;;;;;6.30;0.63;;;10.30;60.60;;;;;;5081396;28;20510;-74
2021/04/01 07:44:47;;;;;;;5.28;0.60;;;10.50;59.00;;;;;;5091511;28;20089;-74
2021/04/01 07:47:32;;;;;;;4.93;0.50;;;10.90;64.10;;;;;;5091557;28;20085;-73
2021/04/01 07:50:12;;;;;;;2.30;0.88;;;11.20;60.30;;;;;;5091443;28;20166;-69
2021/04/01 07:52:41;;;;;;;14.85;0.80;;;10.90;58.80;;;;;;5078632;28;20169;-78
2021/04/01 08:00:21;;;;;;;3.55;0.52;;;11.30;56.30;;;;;;5091782;28;20028;-78
2021/04/01 08:05:27;;;;;;;4.47;0.65;;;10.50;57.30;;;;;;5091596;28;20593;-72
2021/04/01 08:08:00;;;;;;;4.18;0.50;;;10.30;58.10;;;;;;5092503;28;20039;-74
2021/04/01 08:10:33;;;;;;;1.92;0.50;;;10.20;58.30;;;;;;5095034;28;20433;-72
2021/04/01 08:13:12;;;;;;;1.30;0.43;;;10.10;58.10;;;;;;5092376;28;20055;-71
2021/04/01 08:15:47;;;;;;;1.90;0.50;;;9.80;58.50;;;;;;5095140;28;20111;-73
2021/04/01 08:18:18;;;;;;;0.98;0.40;;;9.70;58.70;;;;;;5095378;28;20119;-72
2021/04/01 08:20:48;;;;;;;5.68;0.60;;;9.60;58.60;;;;;;5095073;28;20037;-77
2021/04/01 08:23:22;;;;;;;3.10;0.60;;;9.60;59.00;;;;;;5094949;28;20056;-67
2021/04/01 08:25:57;;;;;;;1.10;0.60;;;10.20;74.10;;;;;;5094795;28;20039;-71
2021/04/01 08:36:46;;;;;;;3.40;0.50;;;10.30;57.80;;;;;;5094751;28;20035;-78
2021/04/01 08:39:13;;;;;;;2.28;0.50;;;10.00;58.40;;;;;;5094907;28;20036;-76
2021/04/01 08:41:41;;;;;;;1.65;0.43;;;10.30;63.80;;;;;;5094445;28;20039;-77
2021/04/01 08:44:30;;;;;;;8.52;1.40;;;10.20;58.80;;;;;;5094938;28;20627;-79
2021/04/01 08:47:33;;;;;;;3.50;0.52;;;10.30;62.40;;;;;;5093753;28;20369;-82
2021/04/01 08:50:26;;;;;;;8.27;0.65;;;10.10;63.10;;;;;;5087836;28;20024;-73
2021/04/01 08:53:26;;;;;;;8.30;0.50;;;10.00;62.40;;;;;;5093804;28;20051;-75
2021/04/01 08:56:20;;;;;;;10.20;1.27;;;10.30;66.40;;;;;;5094138;28;20027;-74
2021/04/01 08:59:13;;;;;;;2.20;0.50;;;10.20;61.10;;;;;;5089799;28;20036;-75
2021/04/01 09:01:41;;;;;;;7.60;0.60;;;9.90;60.40;;;;;;5094703;28;20020;-75
2021/04/01 09:04:08;;;;;;;8.55;0.80;;;9.70;60.60;;;;;;5114530;28;20020;-76
2021/04/01 09:06:38;;;;;;;7.15;0.90;;;9.60;61.20;;;;;;5109518;28;20419;-76
2021/04/01 09:09:25;;;;;;;3.33;0.50;;;9.60;61.20;;;;;;5094332;28;20042;-76
2021/04/01 09:11:56;;;;;;;3.25;0.85;;;9.50;61.80;;;;;;5093698;28;20040;-76
2021/04/01 09:14:33;;;;;;;6.03;0.70;;;9.50;61.90;;;;;;5093983;28;20032;-76
2021/04/01 09:17:11;;;;;;;3.22;0.40;;;9.50;61.10;;;;;;5093481;28;20047;-75
2021/04/01 09:19:42;;;;;;;3.15;0.40;;;9.40;61.70;;;;;;5093343;28;20384;-76
2021/04/01 09:22:14;;;;;;;6.20;0.70;;;9.40;61.20;;;;;;5094143;28;20048;-76
2021/04/01 09:24:41;;;;;;;4.88;0.63;;;9.40;61.30;;;;;;5093560;28;20016;-79
2021/04/01 09:27:16;;;;;;;3.15;0.55;;;9.40;60.70;;;;;;5093715;28;20720;-76
2021/04/01 09:29:44;;;;;;;7.60;0.70;;;9.30;60.50;;;;;;5093680;28;20099;-83
2021/04/01 09:32:12;;;;;;;3.17;0.40;;;9.30;60.50;;;;;;5093379;28;20032;-75
2021/04/01 09:34:39;;;;;;;2.95;0.60;;;9.30;61.80;;;;;;5092657;28;20024;-75
2021/04/01 09:37:10;;;;;;;6.43;0.75;;;9.30;61.00;;;;;;5092391;28;20070;-73
2021/04/01 09:39:37;;;;;;;5.95;1.08;;;9.20;60.10;;;;;;5093422;28;20379;-74
2021/04/01 09:42:07;;;;;;;1.80;0.65;;;10.10;71.00;;;;;;5093012;28;20081;-74
2021/04/01 09:44:34;;;;;;;3.25;0.43;;;10.60;64.00;;;;;;5093558;28;20371;-74
2021/04/01 09:47:03;;;;;;;1.88;0.50;;;10.10;58.90;;;;;;5093432;28;20032;-74
2021/04/01 09:49:46;;;;;;;2.45;0.80;;;9.50;59.10;;;;;;5093540;28;20218;-74
2021/04/01 09:52:14;;;;;;;4.47;0.73;;;9.10;59.40;;;;;;5093354;28;20078;-74
2021/04/01 09:54:53;;;;;;;1.30;0.70;;;8.70;59.80;;;;;;5092960;28;20502;-74
2021/04/01 09:57:20;;;;;;;1.25;0.60;;;8.50;60.10;;;;;;5093020;28;20473;-74
2021/04/01 09:59:52;;;;;;;1.63;0.32;;;8.40;61.00;;;;;;5092938;28;20105;-74
2021/04/01 10:02:33;;;;;;;3.33;0.60;;;8.40;61.00;;;;;;5093102;28;20494;-74
2021/04/01 10:05:04;;;;;;;6.15;0.68;;;8.30;61.20;;;;;;5093103;28;20019;-74
2021/04/01 10:07:36;;;;;;;3.30;0.63;;;8.30;61.60;;;;;;5092903;28;20016;-74
2021/04/01 10:10:05;;;;;;;3.92;0.52;;;8.30;61.10;;;;;;5093045;28;20107;-73
2021/04/01 10:12:41;;;;;;;3.08;0.60;;;8.20;61.60;;;;;;5092379;28;20109;-74
2021/04/01 10:15:10;;;;;;;4.18;0.60;;;8.30;61.80;;;;;;5092900;28;20028;-74
2021/04/01 10:17:37;;;;;;;15.13;1.17;;;8.20;61.10;;;;;;5092235;28;20072;-74
2021/04/01 10:20:07;;;;;;;3.47;0.50;;;8.10;61.10;;;;;;5092488;28;20024;-74
2021/04/01 10:22:36;;;;;;;9.90;0.80;;;8.10;61.30;;;;;;5092229;28;20036;-74
2021/04/01 10:30:14;;;;;;;2.80;0.55;;;8.20;61.60;;;;;;5091992;28;20099;-74
2021/04/01 10:32:49;;;;;;;2.13;0.50;;;8.20;61.40;;;;;;5092265;28;20513;-74
2021/04/01 10:35:18;;;;;;;5.13;0.60;;;8.20;61.60;;;;;;5092307;28;20047;-74
2021/04/01 10:37:49;;;;;;;5.18;0.77;;;8.20;61.40;;;;;;5092125;28;20125;-74
2021/04/01 10:40:18;;;;;;;4.78;0.50;;;8.20;61.60;;;;;;5092117;28;20384;-74
2021/04/01 10:42:48;;;;;;;7.53;2.53;;;8.20;61.70;;;;;;5091998;28;20040;-74
2021/04/01 10:45:19;;;;;;;7.60;0.93;;;8.10;61.80;;;;;;5092495;28;20033;-74
2021/04/01 10:48:12;;;;;;;11.35;0.98;;;8.10;62.20;;;;;;5092010;28;20024;-74
2021/04/01 10:50:39;;;;;;;6.68;1.00;;;8.10;62.30;;;;;;5091873;28;20371;-74
2021/04/01 10:53:05;;;;;;;15.68;0.80;;;8.10;62.00;;;;;;5092029;28;20185;-74
2021/04/01 10:55:32;;;;;;;5.40;0.55;;;8.10;62.10;;;;;;5091698;28;20323;-74
2021/04/01 10:58:08;;;;;;;4.82;0.73;;;8.00;62.00;;;;;;5092223;28;20060;-74
2021/04/01 11:00:35;;;;;;;2.78;0.90;;;8.00;61.80;;;;;;5092001;28;20042;-74
2021/04/01 11:03:03;;;;;;;7.10;0.80;;;8.10;61.70;;;;;;5092181;28;20102;-74
2021/04/01 11:05:32;;;;;;;11.90;1.08;;;8.00;61.60;;;;;;5091695;28;20032;-74
2021/04/01 11:08:11;;;;;;;13.57;1.02;;;8.10;61.70;;;;;;5091824;28;20056;-74
2021/04/01 11:10:38;;;;;;;23.48;2.13;;;8.10;61.60;;;;;;5091669;28;20024;-74
2021/04/01 11:13:07;;;;;;;10.77;1.00;;;8.20;61.30;;;;;;5091556;28;20047;-74
2021/04/01 11:15:36;;;;;;;1.70;0.60;;;8.20;61.10;;;;;;5091956;28;20024;-74
2021/04/01 11:18:06;;;;;;;6.03;0.60;;;8.20;60.50;;;;;;5077803;28;20028;-74
2021/04/01 11:20:38;;;;;;;1.35;0.65;;;8.20;60.10;;;;;;5091907;28;20352;-74
2021/04/01 11:23:12;;;;;;;1.40;0.68;;;8.20;60.00;;;;;;5073404;28;20475;-74
2021/04/01 11:25:45;;;;;;;1.85;0.68;;;8.20;59.90;;;;;;5091821;28;20531;-74
2021/04/01 11:28:11;;;;;;;3.38;0.60;;;8.10;59.80;;;;;;5091562;28;20024;-74
2021/04/01 11:30:51;;;;;;;1.33;0.50;;;8.10;59.70;;;;;;5091451;28;20111;-74
2021/04/01 11:33:26;;;;;;;1.83;0.50;;;8.10;59.70;;;;;;5091732;28;20047;-74
2021/04/01 11:38:30;;;;;;;4.53;0.88;;;8.10;59.90;;;;;;5091238;28;20040;-74
2021/04/01 11:40:59;;;;;;;1.92;0.93;;;8.10;59.80;;;;;;5091719;28;20527;-74
2021/04/01 11:43:27;;;;;;;1.00;0.50;;;8.10;59.80;;;;;;5095560;28;20568;-74
2021/04/01 11:45:53;;;;;;;4.72;0.65;;;8.10;59.90;;;;;;5095757;28;20078;-74
2021/04/01 11:48:19;;;;;;;3.85;0.55;;;8.20;60.10;;;;;;5095899;28;20020;-74
2021/04/01 11:50:45;;;;;;;14.60;0.98;;;8.20;60.20;;;;;;5095595;28;20360;-74
2021/04/01 11:53:11;;;;;;;2.05;0.40;;;8.30;60.40;;;;;;5095456;28;20027;-74
2021/04/01 11:55:48;;;;;;;3.25;0.50;;;8.30;60.40;;;;;;5095186;28;20442;-74
2021/04/01 11:58:14;;;;;;;5.35;0.73;;;8.20;60.80;;;;;;5095345;28;20043;-74
2021/04/01 12:00:40;;;;;;;4.38;0.55;;;8.30;61.10;;;;;;5095072;28;20440;-74
2021/04/01 12:03:16;;;;;;;2.38;0.50;;;8.30;61.30;;;;;;5095248;28;20055;-74
2021/04/01 12:05:45;;;;;;;9.25;0.52;;;8.20;61.20;;;;;;5095127;28;20105;-74
2021/04/01 12:08:11;;;;;;;2.80;0.50;;;8.20;61.60;;;;;;5095352;28;20020;-74
2021/04/01 12:10:38;;;;;;;25.25;1.27;;;8.10;61.80;;;;;;5095331;28;20026;-74
2021/04/01 12:13:04;;;;;;;2.75;0.52;;;8.10;61.90;;;;;;5094284;28;20534;-73
2021/04/01 12:15:36;;;;;;;3.60;0.50;;;8.30;65.10;;;;;;5095264;28;20103;-84
2021/04/01 12:18:06;;;;;;;3.58;0.50;;;8.60;63.00;;;;;;5094966;28;20119;-77
2021/04/01 12:20:33;;;;;;;;;;;8.80;63.10;;;;;;5095502;28;20039;-77
2021/04/01 12:23:14;;;;;;;6.43;0.60;;;8.80;61.10;;;;;;5094861;28;20321;-73
2021/04/01 12:25:40;;;;;;;4.05;0.45;;;9.60;72.50;;;;;;5095043;28;20032;-73
2021/04/01 12:28:06;;;;;;;6.07;0.60;;;10.70;69.90;;;;;;5095223;28;20071;-73
2021/04/01 12:30:38;;;;;;;8.25;0.55;;;11.60;68.30;;;;;;5094698;28;20480;-77
2021/04/01 12:33:17;;;;;;;3.35;0.68;;;11.90;60.00;;;;;;5094592;28;20041;-77
2021/04/01 12:35:52;;;;;;;8.10;2.03;;;11.20;58.50;;;;;;5094573;28;20024;-75
2021/04/01 12:38:39;;;;;;;10.95;0.50;;;11.00;62.60;;;;;;5093530;28;20496;-77
2021/04/01 12:41:20;;;;;;;3.90;0.70;;;11.10;64.10;;;;;;5110369;28;20036;-76
2021/04/01 12:43:47;;;;;;;0.22;0.22;;;10.70;58.10;;;;;;5093966;28;20035;-76
2021/04/01 12:46:13;;;;;;;6.78;0.40;;;10.10;58.60;;;;;;5094311;28;20024;-75
2021/04/01 12:48:41;;;;;;;1.02;0.32;;;9.70;59.50;;;;;;5095155;28;20529;-76
2021/04/01 12:51:08;;;;;;;5.55;0.50;;;9.50;60.00;;;;;;5094344;28;20024;-76
2021/04/01 12:53:35;;;;;;;6.00;0.50;;;9.40;60.20;;;;;;5094028;28;20040;-76
2021/04/01 12:58:44;;;;;;;1.48;0.38;;;9.10;59.90;;;;;;5093038;28;20153;-76
2021/04/01 13:04:05;;;;;;;3.17;0.40;;;9.00;60.20;;;;;;5094408;28;20116;-75
2021/04/01 13:11:28;;;;;;;3.85;0.40;;;8.90;60.10;;;;;;5094184;28;20062;-75
2021/04/01 13:13:55;;;;;;;9.85;0.50;;;8.90;59.90;;;;;;5093627;28;20059;-75
2021/04/01 13:16:21;;;;;;;6.80;0.70;;;8.80;60.00;;;;;;5094200;28;20095;-75
2021/04/01 13:18:47;;;;;;;10.52;0.63;;;8.80;60.00;;;;;;5093934;28;20040;-75
2021/04/01 13:21:31;;;;;;;3.78;0.80;;;8.80;59.90;;;;;;5093689;28;20024;-75
2021/04/01 13:24:02;;;;;;;0.50;0.50;;;8.70;60.00;;;;;;5093948;28;20115;-73
2021/04/01 13:26:29;;;;;;;4.13;0.45;;;8.70;59.70;;;;;;5093948;28;20046;-74
2021/04/01 13:28:55;;;;;;;0.93;0.30;;;8.70;60.00;;;;;;5093816;28;20067;-74
2021/04/01 13:40:01;;;;;;;6.07;1.38;;;8.50;60.30;;;;;;5093547;28;20035;-75
2021/04/01 13:42:35;;;;;;;10.98;0.88;;;8.50;60.40;;;;;;5077654;28;20036;-74
2021/04/01 13:45:11;;;;;;;8.85;0.50;;;8.40;60.50;;;;;;5109318;28;20028;-74
2021/04/01 13:47:41;;;;;;;3.00;0.32;;;8.40;60.90;;;;;;5093370;28;20095;-77
2021/04/01 13:50:07;;;;;;;5.63;0.50;;;8.40;60.60;;;;;;5093732;28;20020;-74
2021/04/01 13:52:41;;;;;;;3.13;0.60;;;8.40;60.90;;;;;;5093317;28;20050;-74
2021/04/01 13:55:28;;;;;;;5.45;0.45;;;8.40;60.70;;;;;;5093294;28;20024;-75
2021/04/01 14:03:59;;;;;;;4.65;0.45;;;8.50;60.60;;;;;;5092913;28;20383;-72
2021/04/01 14:09:33;;;;;;;3.38;0.30;;;8.60;60.80;;;;;;5093426;28;20552;-73
2021/04/01 14:12:01;;;;;;;5.00;0.80;;;8.60;60.50;;;;;;5092384;28;20055;-73
2021/04/01 14:14:29;;;;;;;3.72;0.50;;;8.60;60.60;;;;;;5092636;28;20111;-73
2021/04/01 14:16:56;;;;;;;12.25;0.65;;;8.70;60.70;;;;;;5092210;28;20038;-74
2021/04/01 14:19:23;;;;;;;0.45;0.38;;;8.70;60.50;;;;;;5091989;28;20036;-68
2021/04/01 14:21:58;;;;;;;1.95;0.50;;;8.90;65.70;;;;;;5092399;28;20027;-73
2021/04/01 14:24:32;;;;;;;2.28;0.35;;;10.20;67.10;;;;;;5092397;28;20020;-73
2021/04/01 14:29:28;;;;;;;3.58;1.42;;;10.10;58.10;;;;;;5092640;28;20095;-73
2021/04/01 14:31:54;;;;;;;2.17;0.35;;;9.70;58.50;;;;;;5093590;28;20129;-74
2021/04/01 14:34:22;;;;;;;1.77;0.38;;;9.40;58.70;;;;;;5092282;28;20078;-75
2021/04/01 14:36:49;;;;;;;1.65;0.40;;;9.20;59.10;;;;;;5092414;28;20024;-74
2021/04/01 14:39:17;;;;;;;5.60;0.70;;;9.00;59.20;;;;;;5092538;28;20414;-76
2021/04/01 14:41:53;;;;;;;13.50;1.70;;;8.80;59.50;;;;;;5091561;28;20024;-73
2021/04/01 14:44:21;;;;;;;7.53;0.57;;;8.80;59.80;;;;;;5089474;28;20055;-73
2021/04/01 14:46:46;;;;;;;2.47;0.30;;;8.80;60.10;;;;;;5091951;28;20032;-73
2021/04/01 14:49:13;;;;;;;3.50;0.40;;;8.70;60.00;;;;;;5092253;28;20042;-73
2021/04/01 14:51:40;;;;;;;12.52;2.00;;;8.60;60.00;;;;;;5092043;28;20103;-72
2021/04/01 14:56:33;;;;;;;1.42;0.68;;;8.40;60.30;;;;;;5092127;28;20035;-72
2021/04/01 14:59:08;;;;;;;2.50;0.68;;;8.30;60.30;;;;;;5091801;28;20093;-72
2021/04/01 15:01:34;;;;;;;6.63;0.80;;;8.30;60.60;;;;;;5092048;28;20039;-71
2021/04/01 15:04:00;;;;;;;8.25;0.60;;;8.20;60.60;;;;;;5092080;28;20467;-72
2021/04/01 15:06:27;;;;;;;2.88;0.70;;;8.20;60.60;;;;;;5092344;28;20029;-72
2021/04/01 15:08:55;;;;;;;22.58;1.55;;;8.20;60.70;;;;;;5091205;28;20031;-73
2021/04/01 15:11:21;;;;;;;7.18;0.85;;;8.20;60.90;;;;;;5088573;28;20027;-72
2021/04/01 15:13:48;;;;;;;4.00;1.83;;;8.10;60.90;;;;;;5091369;28;20043;-72
2021/04/01 15:16:14;;;;;;;7.63;0.85;;;8.10;61.10;;;;;;5088558;28;20119;-72
2021/04/01 15:18:40;;;;;;;12.23;3.25;;;8.10;61.20;;;;;;5091215;28;20398;-73
2021/04/01 15:21:06;;;;;;;14.75;6.90;;;8.10;61.10;;;;;;5091070;28;20024;-73
2021/04/01 15:23:32;;;;;;;10.98;3.05;;;8.10;61.10;;;;;;5091303;28;20048;-73
2021/04/01 15:25:58;;;;;;;4.07;1.55;;;8.10;61.00;;;;;;5090952;28;20603;-73
2021/04/01 15:28:24;;;;;;;6.28;1.15;;;8.10;61.20;;;;;;5090670;28;20105;-73
2021/04/01 15:30:50;;;;;;;10.05;0.70;;;8.10;61.30;;;;;;5088541;28;20051;-73
2021/04/01 15:33:16;;;;;;;7.13;0.50;;;8.10;61.20;;;;;;5091399;28;20498;-73
2021/04/01 15:35:42;;;;;;;1.10;0.50;;;8.10;61.10;;;;;;5091373;28;20027;-77
2021/04/01 15:38:08;;;;;;;5.65;0.77;;;8.20;61.30;;;;;;5091597;28;20028;-76
2021/04/01 15:40:35;;;;;;;2.20;0.60;;;8.10;60.90;;;;;;5091815;28;20158;-76
2021/04/01 15:43:03;;;;;;;2.80;0.77;;;8.10;60.70;;;;;;5090540;28;20020;-75
2021/04/01 15:45:28;;;;;;;3.30;0.90;;;8.10;61.10;;;;;;5086895;28;20090;-75
2021/04/01 15:47:55;;;;;;;4.47;0.98;;;8.10;61.20;;;;;;5088429;28;20061;-74
2021/04/01 15:50:21;;;;;;;5.75;0.50;;;8.00;61.30;;;;;;5089298;28;20023;-76
2021/04/01 15:52:48;;;;;;;5.65;0.57;;;8.00;61.50;;;;;;5090902;28;20016;-76
2021/04/01 15:55:14;;;;;;;1.17;0.43;;;8.00;61.60;;;;;;5090682;28;20050;-76
2021/04/01 15:57:41;;;;;;;5.15;0.60;;;8.00;61.50;;;;;;5091048;28;20085;-75
2021/04/01 16:00:10;;;;;;;1.45;0.50;;;7.90;61.50;;;;;;5091035;28;20044;-76
2021/04/01 16:02:36;;;;;;;4.55;0.60;;;7.90;61.60;;;;;;5090739;28;20024;-76
2021/04/01 16:05:03;;;;;;;3.78;0.93;;;7.80;61.90;;;;;;5090758;28;20375;-75
2021/04/01 16:07:29;;;;;;;2.72;0.70;;;7.70;62.00;;;;;;5091044;28;20099;-67
2021/04/01 16:09:55;;;;;;;8.90;2.75;;;7.80;64.00;;;;;;5091264;28;20405;-72
2021/04/01 16:12:23;;;;;;;4.13;1.05;;;8.70;66.00;;;;;;5091108;28;20380;-72
2021/04/01 16:14:49;;;;;;;7.70;0.80;;;8.50;61.50;;;;;;5091162;28;20048;-72
2021/04/01 16:17:14;;;;;;;4.55;0.70;;;8.20;61.30;;;;;;5091092;28;20051;-72
2021/04/01 16:19:40;;;;;;;4.68;0.50;;;8.00;61.60;;;;;;5090945;28;20032;-72
2021/04/01 16:22:06;;;;;;;4.07;0.40;;;7.90;62.20;;;;;;5090965;28;20073;-72
2021/04/01 16:24:32;;;;;;;4.30;0.40;;;7.80;62.60;;;;;;5091231;28;20020;-72
2021/04/01 16:26:57;;;;;;;8.75;0.50;;;7.70;62.80;;;;;;5091670;28;20065;-72
2021/04/01 16:29:23;;;;;;;12.50;0.88;;;7.70;63.00;;;;;;5091079;28;20039;-72
2021/04/01 16:31:50;;;;;;;7.30;0.88;;;7.60;63.10;;;;;;5095469;28;20020;-72
2021/04/01 16:34:18;;;;;;;13.02;0.60;;;7.50;63.30;;;;;;5094724;28;20157;-71
2021/04/01 16:36:47;;;;;;;13.07;0.70;;;7.50;63.60;;;;;;5090279;28;20020;-71
2021/04/01 16:39:13;;;;;;;0.82;0.30;;;8.90;77.60;;;;;;5094579;28;20028;-71
2021/04/01 16:41:39;;;;;;;0.43;0.40;;;9.10;62.90;;;;;;5094846;28;20024;-72
2021/04/01 16:44:06;;;;;;;0.38;0.35;;;8.70;61.70;;;;;;5094313;28;20484;-75
2021/04/01 16:46:32;;;;;;;4.40;0.60;;;8.30;62.50;;;;;;5094037;28;20036;-73
2021/04/01 16:48:58;;;;;;;3.22;0.50;;;8.00;63.20;;;;;;5094187;28;20024;-74
2021/04/01 16:51:28;;;;;;;3.88;0.63;;;7.80;63.70;;;;;;5094746;28;20024;-73
2021/04/01 16:54:02;;;;;;;3.47;0.85;;;7.70;64.20;;;;;;5085344;28;20199;-72
2021/04/01 16:56:33;;;;;;;1.95;0.57;;;7.60;64.70;;;;;;5075336;28;20379;-73
2021/04/01 16:58:59;;;;;;;3.85;0.60;;;7.50;64.90;;;;;;5078197;28;20028;-73
2021/04/01 17:01:26;;;;;;;1.55;0.68;;;7.50;65.20;;;;;;5076788;28;20021;-73
2021/04/01 17:03:53;;;;;;;4.32;0.80;;;7.40;65.50;;;;;;5084300;28;20035;-73
2021/04/01 17:06:19;;;;;;;1.52;0.70;;;7.40;65.80;;;;;;5081900;28;20049;-73
2021/04/01 17:08:45;;;;;;;11.55;1.17;;;7.30;65.80;;;;;;5078834;28;20051;-73
2021/04/01 17:11:11;;;;;;;3.65;0.73;;;7.30;66.00;;;;;;5083700;28;20422;-74
2021/04/01 17:13:37;;;;;;;2.83;0.65;;;7.30;66.50;;;;;;5077167;28;20036;-75
2021/04/01 17:16:03;;;;;;;12.02;0.77;;;7.20;66.60;;;;;;5075269;28;20443;-73
2021/04/01 17:18:33;;;;;;;1.90;0.50;;;7.20;66.80;;;;;;5075826;28;20476;-73
2021/04/01 17:21:01;;;;;;;;;;;7.20;66.90;;;;;;5084935;28;20016;-73
2021/04/01 17:23:27;;;;;;;1.38;0.60;;;7.20;67.30;;;;;;5083926;28;19912;-72
2021/04/01 17:25:54;;;;;;;0.65;0.40;;;7.10;67.20;;;;;;5078877;28;20024;-72
2021/04/01 17:28:20;;;;;;;2.72;0.50;;;7.10;67.50;;;;;;5078722;28;20056;-72
2021/04/01 17:30:46;;;;;;;2.63;0.52;;;7.00;67.50;;;;;;5078493;28;20108;-73
2021/04/01 17:33:12;;;;;;;0.70;0.40;;;7.00;67.70;;;;;;5078042;28;20063;-72
2021/04/01 17:35:38;;;;;;;2.40;0.50;;;7.00;67.80;;;;;;5077702;28;20476;-72
2021/04/01 17:38:06;;;;;;;12.73;0.90;;;6.90;68.00;;;;;;5074081;28;20066;-72
2021/04/01 17:40:33;;;;;;;3.00;0.60;;;6.90;68.10;;;;;;5083594;28;20488;-72
2021/04/01 17:42:59;;;;;;;1.15;0.57;;;6.90;68.40;;;;;;5076863;28;20024;-72
2021/04/01 17:45:24;;;;;;;5.55;0.98;;;6.80;68.40;;;;;;5074524;28;20021;-73
2021/04/01 17:47:50;;;;;;;1.33;0.90;;;6.80;68.60;;;;;;5077370;28;20020;-73
2021/04/01 17:50:17;;;;;;;2.22;0.70;;;6.70;69.70;;;;;;5084709;28;20032;-73
2021/04/01 17:52:43;;;;;;;5.88;0.70;;;6.70;69.00;;;;;;5081817;28;20077;-73
2021/04/01 17:55:12;;;;;;;4.10;1.00;;;6.70;69.00;;;;;;5077878;28;20029;-73
2021/04/01 17:57:49;;;;;;;2.15;1.13;;;6.70;69.20;;;;;;5075770;28;20027;-72
2021/04/01 18:00:22;;;;;;;1.33;0.85;;;6.60;69.30;;;;;;5074634;28;20048;-73
2021/04/01 18:02:59;;;;;;;4.78;0.80;;;6.60;69.50;;;;;;5081943;28;20027;-73
2021/04/01 18:24:16;;;;;;;2.58;1.80;;;6.70;77.40;;;;;;5085461;28;20031;-74
2021/04/01 18:29:25;;;;;;;7.38;3.70;;;7.00;70.20;;;;;;5085391;28;20063;-74
2021/04/01 18:39:36;;;;;;;2.65;1.45;;;6.50;71.50;;;;;;5079815;28;20435;-74
2021/04/01 18:42:06;;;;;;;5.10;1.30;;;6.50;71.60;;;;;;5081613;28;20458;-74
2021/04/01 18:44:37;;;;;;;3.55;1.00;;;6.40;71.90;;;;;;5077108;28;20094;-74
2021/04/01 18:49:51;;;;;;;0.95;0.70;;;6.40;72.20;;;;;;5074181;28;20117;-73
2021/04/01 18:52:50;;;;;;;3.22;0.98;;;6.40;72.40;;;;;;5080763;28;20112;-74
2021/04/01 18:57:59;;;;;;;2.80;0.60;;;6.30;72.80;;;;;;5072700;28;20023;-74
2021/04/01 19:00:32;;;;;;;;;;;6.20;72.70;;;;;;5082199;28;20110;-73
2021/04/01 19:02:59;;;;;;;1.42;0.60;;;6.20;73.30;;;;;;5074584;28;19966;-74
2021/04/01 19:05:35;;;;;;;1.35;0.50;;;6.20;72.90;;;;;;5077621;28;20111;-73
2021/04/01 19:08:12;;;;;;;0.68;0.52;;;6.30;72.90;;;;;;5080065;28;20020;-74
2021/04/01 19:22:07;;;;;;;4.88;0.90;;;6.00;74.00;;;;;;5088715;28;20019;-74
2021/04/01 19:24:28;;;;;;;1.05;0.50;;;6.00;74.40;;;;;;5091006;28;20484;-73
2021/04/01 19:26:55;;;;;;;0.73;0.50;;;5.90;74.50;;;;;;5088283;28;20023;-74
2021/04/01 19:29:20;;;;;;;1.52;0.68;;;5.90;74.50;;;;;;5091234;28;20055;-74
2021/04/01 19:31:47;;;;;;;4.68;1.33;;;5.90;74.60;;;;;;5091105;28;20408;-74
2021/04/01 19:34:12;;;;;;;0.90;0.50;;;5.80;74.70;;;;;;5091108;28;20032;-72
2021/04/01 19:36:39;;;;;;;2.30;1.10;;;5.80;74.90;;;;;;5091849;28;20077;-74
2021/04/01 19:39:12;;;;;;;1.33;0.50;;;6.00;77.00;;;;;;5091600;28;20067;-73
2021/04/01 19:42:00;;;;;;;0.88;0.47;;;6.00;76.20;;;;;;5091494;28;20020;-75
2021/04/01 19:44:27;;;;;;;1.05;0.50;;;6.10;75.40;;;;;;5088087;28;20464;-73
2021/04/01 19:46:55;;;;;;;0.40;0.40;;;5.90;74.70;;;;;;5090861;28;20095;-76
2021/04/01 19:49:27;;;;;;;0.50;0.50;;;5.90;75.00;;;;;;5088657;28;20391;-76
2021/04/01 19:51:53;;;;;;;0.75;0.60;;;5.70;75.20;;;;;;5087930;28;20086;-76
2021/04/01 19:54:22;;;;;;;8.00;1.35;;;5.70;75.40;;;;;;5085443;28;20028;-76
2021/04/01 19:56:54;;;;;;;8.90;2.40;;;5.70;75.60;;;;;;5088308;28;20388;-75
2021/04/01 19:59:23;;;;;;;4.38;1.80;;;5.70;75.70;;;;;;5084098;28;20039;-75
2021/04/01 20:01:49;;;;;;;10.30;1.38;;;5.60;75.80;;;;;;5085256;28;20031;-75
2021/04/01 20:04:15;;;;;;;2.38;0.80;;;5.60;75.80;;;;;;5095036;28;20016;-75
2021/04/01 20:06:41;;;;;;;2.67;0.50;;;5.60;75.80;;;;;;5095195;28;20016;-75